Time;durP1;ratioP1;P1;durP2;ratioP2;P2;SDS_P1;SDS_P2;PMS_P1;PMS_P2;Temp;Humidity;BMP_temperature;BMP_pressure;BME280_temperature;BME280_humidity;BME280_pressure;Samples;Min_cycle;Max_cycle;Signal;HPM_P1;HPM_P2
2022/06/05 00:01:01;;;;;;;7.75;5.30;;;;;;;23.10;41.60;101606.25;5023236;28;20047;-65
2022/06/05 00:03:33;;;;;;;6.97;4.95;;;;;;;23.06;41.36;101610.38;5036157;28;20479;-66
2022/06/05 00:06:10;;;;;;;5.75;4.97;;;;;;;23.02;41.30;101611.72;5036462;28;20045;-66
2022/06/05 00:09:03;;;;;;;7.30;4.95;;;;;;;22.98;41.67;101612.22;5036701;28;20049;-65
2022/06/05 00:11:53;;;;;;;7.93;5.10;;;;;;;22.93;41.80;101599.03;5037871;28;20038;-66
2022/06/05 00:14:21;;;;;;;5.15;4.65;;;;;;;22.92;41.70;101597.34;5036396;28;20025;-66
2022/06/05 00:16:48;;;;;;;6.07;4.95;;;;;;;22.90;41.73;101599.38;5036572;28;20078;-65
2022/06/05 00:19:15;;;;;;;6.63;4.97;;;;;;;22.89;41.83;101597.69;5036249;28;20041;-65
2022/06/05 00:21:42;;;;;;;7.32;5.50;;;;;;;22.87;41.74;101587.91;5035915;28;20071;-65
2022/06/05 00:24:09;;;;;;;7.22;5.30;;;;;;;22.86;41.78;101578.84;5036109;28;20030;-66
2022/06/05 00:26:52;;;;;;;6.38;4.78;;;;;;;22.83;41.88;101579.19;5036084;28;20064;-65
2022/06/05 00:29:25;;;;;;;6.55;4.95;;;;;;;22.82;41.76;101566.53;5034548;28;20138;-65
2022/06/05 00:32:21;;;;;;;9.27;5.25;;;;;;;22.81;42.31;101570.28;5035968;28;20487;-65
2022/06/05 00:34:48;;;;;;;7.75;4.93;;;;;;;22.79;42.08;101564.94;5036059;28;20045;-66
2022/06/05 00:37:29;;;;;;;6.28;5.15;;;;;;;22.77;42.01;101566.16;5036099;28;20060;-66
2022/06/05 00:40:14;;;;;;;7.28;5.00;;;;;;;22.73;42.39;101559.31;5035870;28;20042;-66
2022/06/05 00:42:40;;;;;;;7.68;5.38;;;;;;;22.70;42.34;101568.72;5035533;28;20037;-66
2022/06/05 00:45:13;;;;;;;6.13;5.03;;;;;;;22.68;41.99;101578.13;5035781;28;20038;-66
2022/06/05 00:47:43;;;;;;;6.90;5.32;;;;;;;22.67;42.33;101569.06;5036028;28;20129;-66
2022/06/05 00:50:17;;;;;;;8.15;5.43;;;;;;;22.65;42.38;101564.78;5035517;28;20041;-66
2022/06/05 00:52:51;;;;;;;7.30;5.78;;;;;;;22.64;42.17;101560.31;5035427;28;20045;-66
2022/06/05 00:55:18;;;;;;;7.53;5.68;;;;;;;22.63;42.28;101564.94;5035432;28;20037;-67
2022/06/05 00:57:46;;;;;;;7.80;6.53;;;;;;;22.63;42.52;101561.34;5035572;28;20049;-67
2022/06/05 01:00:20;;;;;;;5.95;5.20;;;;;;;22.61;42.23;101556.03;5037438;28;20057;-67
2022/06/05 01:02:51;;;;;;;6.35;5.47;;;;;;;22.59;42.22;101552.63;5035359;28;20041;-67
2022/06/05 01:05:19;;;;;;;7.20;5.55;;;;;;;22.56;42.36;101546.63;5035452;28;20403;-67
2022/06/05 01:07:47;;;;;;;6.00;5.40;;;;;;;22.55;42.66;101551.25;5034991;28;20033;-66
2022/06/05 01:10:15;;;;;;;6.47;5.38;;;;;;;22.52;42.69;101546.13;5035295;28;20509;-65
2022/06/05 01:12:59;;;;;;;5.95;5.35;;;;;;;22.49;42.92;101549.19;5034769;28;20041;-66
2022/06/05 01:15:36;;;;;;;8.35;5.82;;;;;;;22.46;42.36;101549.53;5033990;28;20045;-66
2022/06/05 01:18:26;;;;;;;7.05;5.78;;;;;;;22.41;42.75;101560.13;5035348;28;20381;-65
2022/06/05 01:21:08;;;;;;;6.47;5.38;;;;;;;22.39;42.63;101552.09;5035468;28;20041;-65
2022/06/05 01:23:52;;;;;;;5.88;5.10;;;;;;;22.38;42.51;101550.38;5034866;28;20052;-66
2022/06/05 01:26:25;;;;;;;7.10;5.43;;;;;;;22.34;42.65;101549.00;5037825;28;20041;-66
2022/06/05 01:29:27;;;;;;;8.55;5.85;;;;;;;22.29;42.79;101551.34;5034877;28;20486;-65
2022/06/05 01:32:07;;;;;;;6.15;5.30;;;;;;;22.24;43.03;101542.81;5046598;28;20475;-65
2022/06/05 01:34:39;;;;;;;8.15;6.05;;;;;;;22.20;43.09;101525.00;5034879;28;20059;-66
2022/06/05 01:37:27;;;;;;;6.85;5.68;;;;;;;22.17;43.04;101525.34;5034758;28;20046;-66
2022/06/05 01:40:07;;;;;;;7.47;5.38;;;;;;;22.17;42.99;101508.94;5034698;28;20046;-66
2022/06/05 01:42:47;;;;;;;7.88;5.30;;;;;;;22.16;43.06;101519.00;5043886;28;20041;-66
2022/06/05 01:45:37;;;;;;;7.60;5.93;;;;;;;22.14;42.90;101512.84;5035172;28;20044;-65
2022/06/05 01:48:07;;;;;;;7.13;5.28;;;;;;;22.12;43.20;101501.22;5035825;28;20049;-65
2022/06/05 01:50:46;;;;;;;6.65;5.00;;;;;;;22.09;43.12;101507.03;5034405;28;20047;-65
2022/06/05 01:53:18;;;;;;;6.38;5.03;;;;;;;22.07;43.10;101514.56;5034255;28;20049;-65
2022/06/05 01:55:54;;;;;;;6.53;5.43;;;;;;;22.05;43.23;101510.28;5044156;28;20049;-65
2022/06/05 01:58:33;;;;;;;6.82;5.25;;;;;;;22.03;43.08;101517.78;5034379;28;20049;-65
2022/06/05 02:01:03;;;;;;;7.13;5.78;;;;;;;22.01;43.24;101504.25;5034548;28;20037;-65
2022/06/05 02:03:36;;;;;;;5.95;5.18;;;;;;;21.98;43.39;101507.31;5034135;28;20041;-65
2022/06/05 02:06:07;;;;;;;7.35;5.18;;;;;;;21.95;43.09;101499.44;5034427;28;20033;-65
2022/06/05 02:08:38;;;;;;;6.63;5.22;;;;;;;21.94;43.60;101499.63;5034139;28;20419;-65
2022/06/05 02:11:26;;;;;;;7.40;5.97;;;;;;;21.91;43.70;101492.59;5034235;28;20059;-65
2022/06/05 02:14:00;;;;;;;7.95;5.93;;;;;;;21.90;43.34;101485.41;5033586;28;20041;-65
2022/06/05 02:16:28;;;;;;;12.05;5.85;;;;;;;21.86;43.54;101482.16;5034261;28;20051;-66
2022/06/05 02:18:59;;;;;;;8.65;5.75;;;;;;;21.84;43.86;101465.06;5032300;28;20049;-65
2022/06/05 02:21:26;;;;;;;7.00;5.55;;;;;;;21.83;43.83;101459.78;5033771;28;20452;-65
2022/06/05 02:23:53;;;;;;;8.90;5.80;;;;;;;21.81;43.66;101449.00;5033662;28;20037;-66
2022/06/05 02:26:20;;;;;;;9.10;6.28;;;;;;;21.77;43.72;101446.75;5032563;28;20034;-65
2022/06/05 02:28:46;;;;;;;7.07;6.15;;;;;;;21.74;44.10;101444.38;5033448;28;20399;-66
2022/06/05 02:31:22;;;;;;;9.18;6.18;;;;;;;21.71;44.21;101436.50;5030893;28;20041;-65
2022/06/05 02:33:59;;;;;;;6.57;5.88;;;;;;;21.66;44.26;101437.00;5026779;28;20041;-65
2022/06/05 02:36:56;;;;;;;11.48;6.60;;;;;;;21.60;44.11;101428.63;5031773;28;20052;-65
2022/06/05 02:40:00;;;;;;;10.68;7.15;;;;;;;21.55;44.07;101421.78;5035481;28;20406;-65
2022/06/05 02:42:32;;;;;;;13.10;6.38;;;;;;;21.52;44.01;101407.53;5038018;28;20084;-65
2022/06/05 02:45:31;;;;;;;9.15;6.55;;;;;;;21.47;44.35;101402.59;5035325;28;20053;-65
2022/06/05 02:48:22;;;;;;;9.50;6.53;;;;;;;21.42;44.64;101399.50;5033695;28;20038;-65
2022/06/05 02:50:55;;;;;;;8.90;6.10;;;;;;;21.42;44.24;101402.22;5032362;28;20509;-65
2022/06/05 02:53:22;;;;;;;8.63;6.25;;;;;;;21.39;44.52;101407.16;5031684;28;20048;-65
2022/06/05 02:55:48;;;;;;;9.23;6.32;;;;;;;21.38;44.04;101405.47;5032607;28;20044;-65
2022/06/05 02:58:15;;;;;;;8.88;6.78;;;;;;;21.36;44.23;101397.44;5031562;28;20041;-65
2022/06/05 03:03:27;;;;;;;8.20;6.60;;;;;;;21.33;44.55;101392.28;5031478;28;20514;-65
2022/06/05 03:03:29;;;;;;;9.73;6.55;;;;;;;21.32;44.43;101382.38;5029844;28;20061;-65
2022/06/05 03:05:59;;;;;;;7.50;5.93;;;;;;;21.32;44.63;101387.84;5029381;28;20092;-66
2022/06/05 03:08:26;;;;;;;9.98;6.13;;;;;;;21.33;44.75;101380.50;5030307;28;20053;-65
2022/06/05 03:10:53;;;;;;;8.13;6.53;;;;;;;21.34;44.50;101379.50;5031848;28;20112;-65
2022/06/05 03:13:19;;;;;;;7.72;6.22;;;;;;;21.33;44.76;101384.09;5033777;28;20037;-65
2022/06/05 03:15:46;;;;;;;10.82;6.60;;;;;;;21.33;44.47;101375.91;5029430;28;20045;-66
2022/06/05 03:18:13;;;;;;;9.43;6.20;;;;;;;21.33;44.30;101375.91;5029457;28;20128;-66
2022/06/05 03:20:41;;;;;;;8.05;5.85;;;;;;;21.32;44.65;101381.53;5050508;28;20030;-66
2022/06/05 03:23:09;;;;;;;12.10;5.80;;;;;;;21.30;44.70;101383.56;5029406;28;20042;-66
2022/06/05 03:25:39;;;;;;;7.68;5.85;;;;;;;21.27;44.79;101384.75;5028124;28;20483;-65
2022/06/05 03:28:07;;;;;;;8.15;6.45;;;;;;;21.27;44.91;101389.38;5033283;28;20120;-66
2022/06/05 03:30:37;;;;;;;10.48;6.13;;;;;;;21.27;44.85;101382.03;5035644;28;20041;-66
2022/06/05 03:33:03;;;;;;;7.85;6.30;;;;;;;21.27;44.82;101373.84;5037052;28;20402;-66
2022/06/05 03:35:30;;;;;;;8.43;6.50;;;;;;;21.28;45.03;101377.41;5033197;28;20041;-66
2022/06/05 03:37:56;;;;;;;9.15;6.20;;;;;;;21.27;44.86;101375.72;5030979;28;20445;-66
2022/06/05 03:40:23;;;;;;;8.35;6.35;;;;;;;21.29;44.62;101369.06;5038559;28;20120;-66
2022/06/05 03:42:50;;;;;;;8.02;6.30;;;;;;;21.28;44.54;101366.50;5032161;28;20614;-65
2022/06/05 03:45:17;;;;;;;8.15;6.40;;;;;;;21.27;44.68;101362.03;5036279;28;20069;-66
2022/06/05 03:47:44;;;;;;;8.88;6.40;;;;;;;21.24;44.60;101358.63;5044717;28;20060;-66
2022/06/05 03:50:13;;;;;;;8.35;6.25;;;;;;;21.21;44.89;101360.81;5028031;28;20060;-66
2022/06/05 03:52:41;;;;;;;11.15;6.88;;;;;;;21.19;44.87;101376.50;5027382;28;20076;-66
2022/06/05 03:55:14;;;;;;;8.70;6.90;;;;;;;21.15;45.18;101369.66;5034896;28;20495;-65
2022/06/05 03:57:41;;;;;;;8.60;6.10;;;;;;;21.12;45.06;101372.72;5034625;28;20037;-66
2022/06/05 04:00:09;;;;;;;8.32;6.60;;;;;;;21.10;44.85;101378.34;5034680;28;20041;-66
2022/06/05 04:02:40;;;;;;;9.45;6.78;;;;;;;21.10;45.11;101377.50;5032803;28;20100;-65
2022/06/05 04:05:08;;;;;;;10.93;7.05;;;;;;;21.09;44.89;101382.09;5030768;28;20030;-65
2022/06/05 04:07:34;;;;;;;10.52;6.93;;;;;;;21.09;44.95;101375.78;5032580;28;20525;-65
2022/06/05 04:10:04;;;;;;;10.05;7.13;;;;;;;21.10;45.10;101374.75;5035845;28;20041;-65
2022/06/05 04:12:30;;;;;;;6.95;6.25;;;;;;;21.09;45.21;101368.44;5031338;28;20050;-65
2022/06/05 04:15:00;;;;;;;10.43;6.78;;;;;;;21.10;45.06;101363.84;5030148;28;20055;-65
2022/06/05 04:17:26;;;;;;;10.35;6.68;;;;;;;21.12;45.19;101359.06;5032687;28;20049;-65
2022/06/05 04:19:53;;;;;;;8.25;6.80;;;;;;;21.12;45.50;101357.19;5032005;28;20037;-65
2022/06/05 04:22:20;;;;;;;9.77;6.97;;;;;;;21.12;45.34;101362.66;5031534;28;20042;-66
2022/06/05 04:24:46;;;;;;;10.30;6.85;;;;;;;21.10;45.38;101361.97;5034853;28;20047;-66
2022/06/05 04:27:13;;;;;;;8.07;6.40;;;;;;;21.10;45.26;101359.22;5032753;28;20034;-66
2022/06/05 04:29:40;;;;;;;9.50;6.70;;;;;;;21.09;45.57;101360.25;5036229;28;20033;-66
2022/06/05 04:32:08;;;;;;;7.55;6.28;;;;;;;21.10;45.04;101359.22;5035081;28;20048;-66
2022/06/05 04:34:35;;;;;;;9.43;6.25;;;;;;;21.09;45.21;101360.25;5032379;28;20395;-66
2022/06/05 04:37:01;;;;;;;7.82;6.50;;;;;;;21.11;45.24;101358.22;5029993;28;20128;-66
2022/06/05 04:39:28;;;;;;;11.30;7.70;;;;;;;21.09;45.64;101356.66;5026207;28;20045;-65
2022/06/05 04:41:55;;;;;;;10.52;7.20;;;;;;;21.08;45.54;101360.41;5020280;28;20048;-66
2022/06/05 04:44:21;;;;;;;9.57;6.93;;;;;;;21.07;45.38;101361.44;5033559;28;20052;-66
2022/06/05 04:46:48;;;;;;;13.23;7.10;;;;;;;21.06;45.51;101360.59;5018267;28;20124;-66
2022/06/05 04:49:15;;;;;;;10.00;7.47;;;;;;;21.05;45.89;101355.28;5023058;28;20510;-66
2022/06/05 04:51:42;;;;;;;10.93;7.25;;;;;;;21.06;45.96;101352.38;5028944;28;20046;-65
2022/06/05 04:54:16;;;;;;;8.45;7.13;;;;;;;21.08;45.85;101369.47;5034903;28;20033;-65
2022/06/05 04:56:43;;;;;;;9.10;7.43;;;;;;;21.08;46.00;101365.88;5024955;28;20040;-66
2022/06/05 04:59:11;;;;;;;10.18;7.13;;;;;;;21.06;45.88;101360.59;5024922;28;20073;-65
2022/06/05 05:01:39;;;;;;;9.35;7.47;;;;;;;21.04;45.53;101359.88;5028008;28;20070;-65
2022/06/05 05:04:12;;;;;;;9.88;6.72;;;;;;;21.03;45.74;101355.44;5019010;28;20050;-65
2022/06/05 05:06:40;;;;;;;12.00;6.97;;;;;;;21.04;46.09;101357.16;5029209;28;20514;-65
2022/06/05 05:09:07;;;;;;;8.70;6.80;;;;;;;21.04;46.23;101364.50;5019105;28;20042;-65
2022/06/05 05:11:36;;;;;;;10.25;7.22;;;;;;;21.06;46.03;101359.72;5022391;28;20063;-65
2022/06/05 05:14:02;;;;;;;9.35;6.68;;;;;;;21.04;45.92;101362.63;5027988;28;20045;-65
2022/06/05 05:16:30;;;;;;;12.43;7.40;;;;;;;21.05;46.31;101349.81;5024977;28;20033;-66
2022/06/05 05:19:04;;;;;;;10.18;7.32;;;;;;;21.05;45.83;101361.59;5018820;28;20078;-65
2022/06/05 05:21:31;;;;;;;7.72;6.45;;;;;;;21.09;45.89;101362.13;5033306;28;20037;-66
2022/06/05 05:23:57;;;;;;;12.30;7.60;;;;;;;21.10;45.84;101381.09;5024827;28;20069;-66
2022/06/05 05:26:30;;;;;;;9.05;6.78;;;;;;;21.13;45.80;101377.16;5030629;28;20046;-65
2022/06/05 05:28:57;;;;;;;9.88;7.00;;;;;;;21.15;46.05;101378.72;5049286;28;20051;-65
2022/06/05 05:31:27;;;;;;;10.40;6.93;;;;;;;21.16;45.90;101388.63;5035432;28;20053;-65
2022/06/05 05:33:54;;;;;;;11.23;7.38;;;;;;;21.17;46.48;101376.66;5035648;28;20049;-65
2022/06/05 05:36:22;;;;;;;9.77;7.47;;;;;;;21.17;46.45;101376.66;5034553;28;20495;-65
2022/06/05 05:44:29;;;;;;;10.50;7.80;;;;;;;21.19;46.48;101368.31;5035030;28;20083;-65
2022/06/05 05:46:56;;;;;;;10.65;7.20;;;;;;;21.20;46.15;101365.41;5034093;28;20506;-65
2022/06/05 05:49:22;;;;;;;9.30;6.93;;;;;;;21.20;46.60;101364.56;5021120;28;20038;-65
2022/06/05 05:51:49;;;;;;;7.05;6.35;;;;;;;21.21;46.69;101364.38;5031308;28;20048;-64
2022/06/05 05:54:16;;;;;;;7.82;6.75;;;;;;;21.24;46.76;101364.09;5042563;28;20562;-64
2022/06/05 05:56:42;;;;;;;8.13;6.78;;;;;;;21.27;46.80;101370.25;5026255;28;20034;-64
2022/06/05 05:59:09;;;;;;;9.00;6.97;;;;;;;21.30;46.84;101367.19;5035280;28;20056;-64
2022/06/05 06:01:36;;;;;;;10.05;7.85;;;;;;;21.34;46.82;101361.22;5030341;28;20480;-64
2022/06/05 06:04:03;;;;;;;8.90;7.22;;;;;;;21.38;46.61;101365.31;5032027;28;20044;-65
2022/06/05 06:06:32;;;;;;;7.65;6.75;;;;;;;21.42;46.72;101360.38;5029717;28;20072;-65
2022/06/05 06:08:59;;;;;;;8.45;6.93;;;;;;;21.44;46.97;101345.53;5031978;28;20549;-64
2022/06/05 06:11:26;;;;;;;8.50;6.93;;;;;;;21.47;46.46;101347.06;5031964;28;20119;-65
2022/06/05 06:13:53;;;;;;;11.63;7.65;;;;;;;21.50;46.83;101347.59;5032599;28;20046;-64
2022/06/05 06:16:20;;;;;;;8.43;7.32;;;;;;;21.50;46.55;101344.84;5031715;28;20068;-64
2022/06/05 06:18:47;;;;;;;9.60;7.25;;;;;;;21.50;46.55;101347.59;5033741;28;20053;-65
2022/06/05 06:21:13;;;;;;;11.07;7.95;;;;;;;21.50;46.56;101344.84;5034313;28;20046;-65
2022/06/05 06:23:40;;;;;;;8.15;7.05;;;;;;;21.50;46.49;101333.94;5037714;28;20041;-64
2022/06/05 06:26:08;;;;;;;8.18;6.68;;;;;;;21.52;46.74;101334.63;5037602;28;20041;-64
2022/06/05 06:28:35;;;;;;;9.02;7.05;;;;;;;21.55;46.42;101334.31;5033602;28;20041;-64
2022/06/05 06:31:04;;;;;;;10.02;6.88;;;;;;;21.60;46.41;101324.75;5033348;28;20112;-64
2022/06/05 06:33:34;;;;;;;7.97;6.93;;;;;;;21.65;46.89;101322.38;5020132;28;20434;-64
2022/06/05 06:36:09;;;;;;;9.30;7.00;;;;;;;21.68;46.68;101322.88;5037338;28;20434;-64
2022/06/05 06:38:56;;;;;;;8.57;7.20;;;;;;;21.73;46.74;101322.38;5032378;28;20061;-64
2022/06/05 06:41:23;;;;;;;9.10;7.15;;;;;;;21.75;46.30;101321.16;5031410;28;20596;-64
2022/06/05 06:44:16;;;;;;;8.43;7.53;;;;;;;21.75;46.64;101312.13;5032633;28;20052;-64
2022/06/05 06:46:43;;;;;;;9.50;6.95;;;;;;;21.79;46.52;101306.13;5026518;28;20048;-64
2022/06/05 06:49:09;;;;;;;9.73;7.20;;;;;;;21.81;46.54;101293.16;5032220;28;20062;-64
2022/06/05 06:51:36;;;;;;;8.35;6.85;;;;;;;21.84;46.83;101289.22;5035613;28;20069;-65
2022/06/05 06:54:03;;;;;;;10.05;7.93;;;;;;;21.88;46.58;101285.97;5034481;28;20051;-64
2022/06/05 06:56:33;;;;;;;8.48;7.03;;;;;;;21.94;46.86;101278.94;5033631;28;20033;-63
2022/06/05 06:59:00;;;;;;;8.60;6.88;;;;;;;21.99;46.83;101276.56;5033645;28;20092;-64
2022/06/05 07:01:27;;;;;;;9.80;7.47;;;;;;;22.03;46.48;101271.63;5045005;28;20486;-66
2022/06/05 07:03:54;;;;;;;11.35;7.90;;;;;;;22.09;46.76;101269.03;5034167;28;20059;-64
2022/06/05 07:06:21;;;;;;;7.97;6.88;;;;;;;22.16;46.62;101261.00;5032012;28;20376;-63
2022/06/05 07:08:49;;;;;;;9.82;6.78;;;;;;;22.23;46.59;101259.28;5031673;28;20056;-63
2022/06/05 07:11:17;;;;;;;7.57;6.88;;;;;;;22.32;46.34;101265.59;5031313;28;20045;-64
2022/06/05 07:13:48;;;;;;;9.70;7.22;;;;;;;22.39;46.50;101258.41;5035723;28;20037;-65
2022/06/05 07:16:17;;;;;;;8.20;6.93;;;;;;;22.45;46.40;101257.69;5031425;28;20557;-65
2022/06/05 07:18:43;;;;;;;10.32;7.13;;;;;;;22.52;46.50;101242.28;5032584;28;20095;-65
2022/06/05 07:21:13;;;;;;;8.07;6.60;;;;;;;22.60;46.58;101239.50;5027048;28;20029;-65
2022/06/05 07:23:42;;;;;;;8.15;7.15;;;;;;;22.67;46.02;101234.16;5031189;28;20037;-66
2022/06/05 07:26:12;;;;;;;7.93;6.97;;;;;;;22.74;46.29;101226.94;5031223;28;20034;-65
2022/06/05 07:28:39;;;;;;;7.78;7.00;;;;;;;22.80;46.08;101221.63;5031856;28;20054;-65
2022/06/05 07:31:07;;;;;;;7.75;6.95;;;;;;;22.89;46.08;101221.59;5031116;28;20044;-65
2022/06/05 07:33:35;;;;;;;8.27;7.40;;;;;;;22.98;46.12;101212.28;5035418;28;20047;-66
2022/06/05 07:36:06;;;;;;;8.40;7.53;;;;;;;23.07;46.08;101216.72;5033391;28;20069;-66
2022/06/05 07:38:35;;;;;;;7.63;6.80;;;;;;;23.16;45.94;101217.50;5031187;28;20048;-65
2022/06/05 07:41:02;;;;;;;7.18;6.47;;;;;;;23.23;46.11;101211.13;5040471;28;20120;-65
2022/06/05 07:43:29;;;;;;;7.60;6.70;;;;;;;23.29;45.97;101213.13;5030916;28;20037;-66
2022/06/05 07:45:57;;;;;;;9.77;7.63;;;;;;;23.36;46.01;101205.88;5036016;28;20048;-65
2022/06/05 07:48:23;;;;;;;7.85;7.05;;;;;;;23.43;45.73;101206.00;5042442;28;20052;-65
2022/06/05 07:56:37;;;;;;;8.38;7.25;;;;;;;23.68;45.42;101196.53;5029580;28;20045;-66
2022/06/05 07:59:03;;;;;;;8.65;6.53;;;;;;;23.77;45.41;101191.81;5039984;28;20045;-65
2022/06/05 08:01:50;;;;;;;8.57;7.70;;;;;;;23.87;45.77;101188.84;5031584;28;20037;-66
2022/06/05 08:04:17;;;;;;;7.40;6.68;;;;;;;23.95;45.37;101177.78;5030675;28;20059;-65
2022/06/05 08:06:51;;;;;;;7.97;6.80;;;;;;;24.06;45.56;101180.06;5043760;28;20048;-66
2022/06/05 08:09:17;;;;;;;8.25;7.40;;;;;;;24.14;45.55;101171.72;5035599;28;20052;-65
2022/06/05 08:11:45;;;;;;;7.60;6.82;;;;;;;24.24;45.29;101182.41;5035772;28;20438;-65
2022/06/05 08:14:14;;;;;;;7.10;6.40;;;;;;;24.32;45.53;101163.13;5030321;28;20124;-65
2022/06/05 08:16:43;;;;;;;10.52;7.00;;;;;;;24.41;45.30;101172.97;5041291;28;20402;-64
2022/06/05 08:19:18;;;;;;;8.93;6.95;;;;;;;24.53;45.28;101171.47;5027281;28;20037;-64
2022/06/05 08:21:46;;;;;;;7.65;6.95;;;;;;;24.61;45.14;101163.13;5046422;28;20037;-63
2022/06/05 08:24:13;;;;;;;8.25;7.22;;;;;;;24.71;45.04;101155.41;5040194;28;20509;-63
2022/06/05 08:26:40;;;;;;;8.45;7.55;;;;;;;24.78;44.95;101160.13;5036932;28;20053;-64
2022/06/05 08:29:07;;;;;;;8.45;7.32;;;;;;;24.86;45.09;101160.00;5065374;28;20063;-65
2022/06/05 08:31:34;;;;;;;7.90;7.05;;;;;;;24.93;44.86;101159.03;5044517;28;20052;-64
2022/06/05 08:34:01;;;;;;;11.50;7.35;;;;;;;25.00;45.06;101159.97;5033991;28;20046;-65
2022/06/05 08:36:28;;;;;;;7.72;7.10;;;;;;;25.10;44.57;101162.41;5033970;28;20049;-64
2022/06/05 08:42:13;;;;;;;8.60;7.30;;;;;;;25.37;44.38;101162.69;5033649;28;20047;-64
2022/06/05 08:44:47;;;;;;;8.60;7.07;;;;;;;25.52;44.50;101163.44;5037079;28;20052;-64
2022/06/05 08:47:26;;;;;;;8.40;7.60;;;;;;;25.64;44.14;101172.84;5033820;28;20055;-64
2022/06/05 08:50:03;;;;;;;7.95;7.25;;;;;;;25.79;44.17;101161.78;5033482;28;20041;-64
2022/06/05 08:52:42;;;;;;;8.18;6.63;;;;;;;25.94;43.74;101165.25;5033601;28;20483;-65
2022/06/05 08:55:20;;;;;;;8.13;7.20;;;;;;;26.09;43.73;101170.69;5033118;28;20051;-64
2022/06/05 08:57:52;;;;;;;7.90;7.05;;;;;;;26.21;43.55;101166.31;5016730;28;20049;-65
2022/06/05 09:00:31;;;;;;;8.50;6.82;;;;;;;26.32;43.36;101167.63;5033003;28;20501;-66
2022/06/05 09:03:03;;;;;;;8.35;6.93;;;;;;;26.42;43.25;101170.88;5033454;28;20041;-64
2022/06/05 09:05:35;;;;;;;7.07;6.32;;;;;;;26.47;43.08;101162.84;5033454;28;20042;-65
2022/06/05 09:08:08;;;;;;;7.20;6.50;;;;;;;26.52;43.14;101161.19;5033239;28;20391;-67
2022/06/05 09:10:48;;;;;;;8.18;6.80;;;;;;;26.56;42.97;101167.13;5033268;28;20042;-65
2022/06/05 09:13:35;;;;;;;7.82;7.00;;;;;;;26.58;42.73;101163.13;5031983;28;20038;-65
2022/06/05 09:16:11;;;;;;;7.32;6.63;;;;;;;26.63;42.69;101169.91;5032994;28;20053;-65
2022/06/05 09:18:43;;;;;;;7.70;6.75;;;;;;;26.67;42.51;101165.69;5045159;28;20092;-65
2022/06/05 09:21:27;;;;;;;8.35;6.90;;;;;;;26.64;42.40;101157.84;5021094;28;20046;-65
2022/06/05 09:23:56;;;;;;;7.20;6.50;;;;;;;26.62;42.43;101163.56;5032641;28;20037;-66
2022/06/05 09:26:41;;;;;;;7.53;6.45;;;;;;;26.63;42.65;101159.75;5041018;28;20549;-65
2022/06/05 09:29:28;;;;;;;7.50;6.75;;;;;;;26.68;42.91;101162.72;5033281;28;20355;-65
2022/06/05 09:32:20;;;;;;;11.00;7.68;;;;;;;26.72;42.69;101165.91;5033332;28;20125;-67
2022/06/05 09:34:54;;;;;;;7.60;6.80;;;;;;;26.73;42.54;101151.94;5020149;28;20136;-65
2022/06/05 09:37:42;;;;;;;9.25;6.93;;;;;;;26.72;42.31;101160.41;5043988;28;20218;-65
2022/06/05 09:40:17;;;;;;;7.70;6.70;;;;;;;26.73;42.22;101162.09;5033087;28;20489;-62
2022/06/05 09:43:12;;;;;;;8.15;7.38;;;;;;;26.71;42.55;101155.94;5019009;28;20042;-63
2022/06/05 09:46:17;;;;;;;7.40;6.70;;;;;;;26.64;42.37;101142.16;5033228;28;20073;-63
2022/06/05 09:48:59;;;;;;;9.00;6.97;;;;;;;26.60;42.15;101138.13;5022569;28;20045;-62
2022/06/05 09:51:25;;;;;;;7.57;6.75;;;;;;;26.57;42.52;101144.03;5033797;28;20383;-64
2022/06/05 09:54:04;;;;;;;7.25;6.65;;;;;;;26.54;42.46;101137.03;5032855;28;20045;-64
2022/06/05 09:59:40;;;;;;;7.97;7.18;;;;;;;26.46;42.39;101126.19;5031733;28;20038;-63
2022/06/05 10:02:09;;;;;;;7.97;7.18;;;;;;;26.46;42.55;101130.84;5031483;28;20045;-64
2022/06/05 10:04:37;;;;;;;9.10;6.97;;;;;;;26.46;42.57;101123.44;5032780;28;20506;-64
2022/06/05 10:07:37;;;;;;;7.97;7.28;;;;;;;26.47;42.78;101119.63;5023728;28;20052;-63
2022/06/05 10:10:07;;;;;;;13.52;7.10;;;;;;;26.48;42.58;101124.09;5030116;28;20037;-63
2022/06/05 10:12:53;;;;;;;8.40;7.43;;;;;;;26.47;42.88;101119.63;5053132;28;20049;-63
2022/06/05 10:15:46;;;;;;;7.60;6.88;;;;;;;26.48;42.79;101121.34;5031555;28;20044;-64
2022/06/05 10:18:32;;;;;;;9.40;7.10;;;;;;;26.47;42.73;101110.53;5032851;28;20069;-63
2022/06/05 10:21:11;;;;;;;8.75;7.93;;;;;;;26.44;43.14;101114.53;5033187;28;20042;-63
2022/06/05 10:24:04;;;;;;;8.45;7.63;;;;;;;26.41;42.98;101106.69;5032834;28;20522;-64
2022/06/05 10:26:31;;;;;;;8.90;8.00;;;;;;;26.37;43.12;101113.66;5032873;28;20491;-63
2022/06/05 10:29:15;;;;;;;8.93;8.13;;;;;;;26.29;43.04;101111.06;5033141;28;20048;-63
2022/06/05 10:32:00;;;;;;;9.43;8.30;;;;;;;26.26;43.18;101104.06;5032869;28;20048;-63
2022/06/05 10:34:34;;;;;;;9.30;8.40;;;;;;;26.24;43.61;101110.84;5031883;28;20053;-64
2022/06/05 10:37:01;;;;;;;10.07;7.80;;;;;;;26.17;43.30;101105.28;5030179;28;20037;-63
2022/06/05 10:39:34;;;;;;;10.63;8.48;;;;;;;26.14;43.72;101099.34;5030870;28;20128;-63
2022/06/05 10:42:19;;;;;;;10.95;8.38;;;;;;;26.07;44.20;101095.72;5031440;28;20037;-63
2022/06/05 10:45:04;;;;;;;11.63;9.25;;;;;;;25.99;44.41;101096.72;5032457;28;20044;-63
2022/06/05 10:47:47;;;;;;;11.57;10.32;;;;;;;25.93;44.46;101112.13;5030377;28;20041;-65
2022/06/05 10:50:23;;;;;;;13.00;10.73;;;;;;;25.86;44.83;101100.25;5019619;28;20047;-63
2022/06/05 10:53:14;;;;;;;10.20;9.13;;;;;;;25.81;44.98;101108.25;5031195;28;20407;-64
2022/06/05 10:55:59;;;;;;;11.40;9.35;;;;;;;25.75;45.25;101106.31;5031236;28;20064;-63
2022/06/05 10:58:35;;;;;;;12.20;9.50;;;;;;;25.69;45.37;101093.34;5031141;28;20049;-64
2022/06/05 11:01:27;;;;;;;10.45;9.55;;;;;;;25.63;45.63;101094.97;5030976;28;20068;-64
2022/06/05 11:04:39;;;;;;;9.93;8.98;;;;;;;25.58;45.74;101091.13;5033295;28;20389;-64
2022/06/05 11:07:33;;;;;;;10.27;8.73;;;;;;;25.55;46.09;101086.91;5031076;28;20048;-64
2022/06/05 11:10:02;;;;;;;9.88;8.95;;;;;;;25.54;45.99;101087.94;5034128;28;20051;-64
2022/06/05 11:15:52;;;;;;;9.25;8.35;;;;;;;25.52;46.12;101076.28;5032518;28;20037;-63
2022/06/05 11:18:47;;;;;;;9.63;8.73;;;;;;;25.52;46.11;101075.44;5035102;28;20076;-63
2022/06/05 11:21:17;;;;;;;9.02;8.13;;;;;;;25.51;46.29;101079.25;5040926;28;20323;-63
2022/06/05 11:23:54;;;;;;;9.55;8.52;;;;;;;25.51;46.13;101082.84;5032226;28;20044;-64
2022/06/05 11:26:39;;;;;;;10.32;9.40;;;;;;;25.54;46.37;101076.94;5032124;28;20128;-63
2022/06/05 11:29:27;;;;;;;11.87;10.43;;;;;;;25.53;46.71;101083.50;5032664;28;20056;-62
2022/06/05 11:32:10;;;;;;;12.63;10.88;;;;;;;25.44;47.14;101089.34;5032138;28;20298;-64
2022/06/05 11:34:43;;;;;;;12.70;11.13;;;;;;;25.29;47.27;101093.03;5032244;28;20042;-64
2022/06/05 11:37:16;;;;;;;13.65;12.20;;;;;;;25.15;47.99;101087.59;5026464;28;20104;-64
2022/06/05 11:39:59;;;;;;;15.13;12.27;;;;;;;25.02;48.32;101082.84;5027970;28;20034;-64
2022/06/05 11:42:31;;;;;;;16.45;13.07;;;;;;;24.91;49.00;101083.34;5033421;28;20059;-64
2022/06/05 11:45:17;;;;;;;15.65;13.55;;;;;;;24.77;49.29;101079.63;5031459;28;20037;-63
2022/06/05 11:47:53;;;;;;;17.33;13.90;;;;;;;24.63;49.75;101067.66;5030803;28;20037;-64
2022/06/05 11:50:35;;;;;;;19.35;14.32;;;;;;;24.54;50.06;101060.59;5029466;28;20050;-63
2022/06/05 11:53:17;;;;;;;17.30;14.43;;;;;;;24.40;50.87;101048.56;5024278;28;20030;-64
2022/06/05 11:56:09;;;;;;;15.35;13.55;;;;;;;24.32;51.06;101056.09;5034172;28;20478;-64
2022/06/05 11:58:45;;;;;;;15.18;13.70;;;;;;;24.27;50.96;101050.31;5033016;28;20385;-64
2022/06/05 12:01:17;;;;;;;15.85;14.25;;;;;;;24.20;51.65;101044.72;5031115;28;20034;-64
2022/06/05 12:03:59;;;;;;;16.92;15.07;;;;;;;24.20;52.23;101043.88;5033602;28;20041;-64
2022/06/05 12:06:33;;;;;;;15.63;13.98;;;;;;;24.19;52.10;101043.03;5032245;28;20057;-64
2022/06/05 12:09:04;;;;;;;16.45;14.70;;;;;;;24.18;52.54;101032.25;5034545;28;20471;-64
2022/06/05 12:11:39;;;;;;;17.15;15.50;;;;;;;24.21;53.14;101034.59;5033001;28;20505;-64